Terminal Aerodrome Forecast
Issued by NWS Knoxville/Tri Cities, TN

Current Version | Previous Version | Text Only | Print | Product List | Glossary On
Versions: 1 2 3 4 5 6 7 8 9 10 11 12
000
FTUS44 KMRX 250529
TAFTRI
TAF
KTRI 250529Z 2506/2606 00000KT P6SM SKC
     FM251500 23004KT P6SM SCT050 BKN200
     FM252100 26006KT P6SM VCTS BKN050CB
     FM260300 00000KT P6SM SCT050 SCT250=

USA.gov is the U.S. government's official web portal to all federal, state and local government web resources and services.